Time;durP1;ratioP1;P1;durP2;ratioP2;P2;SDS_P1;SDS_P2;PMS_P1;PMS_P2;Temp;Humidity;BMP_temperature;BMP_pressure;BME280_temperature;BME280_humidity;BME280_pressure;Samples;Min_cycle;Max_cycle;Signal;HPM_P1;HPM_P2
2021/05/26 00:01:33;;;;;;;58.30;55.30;;;8.80;99.90;;;;;;6196091;23;20420;-83
2021/05/26 00:04:03;;;;;;;59.53;56.53;;;8.70;99.90;;;;;;6196412;23;20405;-82
2021/05/26 00:06:57;;;;;;;66.07;62.93;;;8.70;99.90;;;;;;6194786;23;20444;-83
2021/05/26 00:09:26;;;;;;;64.87;61.77;;;8.70;99.90;;;;;;6196085;23;20413;-82
2021/05/26 00:11:53;;;;;;;62.37;59.30;;;8.60;99.90;;;;;;6186354;23;20409;-82
2021/05/26 00:14:23;;;;;;;57.27;54.17;;;8.60;99.90;;;;;;6195878;23;20421;-82
2021/05/26 00:16:58;;;;;;;60.40;57.30;;;8.70;99.90;;;;;;6186507;23;20401;-82
2021/05/26 00:19:24;;;;;;;62.60;59.50;;;8.60;99.90;;;;;;6186158;23;20397;-82
2021/05/26 00:22:00;;;;;;;69.37;65.87;;;8.60;99.90;;;;;;6185068;23;20397;-82
2021/05/26 00:24:32;;;;;;;74.97;70.47;;;8.60;99.90;;;;;;6185871;23;20761;-82
2021/05/26 00:27:07;;;;;;;75.47;71.90;;;8.60;99.90;;;;;;6195884;23;20523;-82
2021/05/26 00:29:39;;;;;;;68.53;65.13;;;8.50;99.90;;;;;;6186244;23;20473;-82
2021/05/26 00:32:07;;;;;;;69.53;65.80;;;8.70;99.90;;;;;;6196096;23;20467;-82
2021/05/26 00:35:00;;;;;;;;;;;;;;;;;;;;;
2021/05/26 00:37:31;;;;;;;66.20;62.70;;;8.60;99.90;;;;;;6194551;23;20389;-82
2021/05/26 00:40:13;;;;;;;68.30;64.70;;;8.70;99.90;;;;;;6186033;23;20401;-82
2021/05/26 00:42:40;;;;;;;62.50;59.30;;;8.70;99.90;;;;;;6186064;23;20412;-82
2021/05/26 00:45:17;;;;;;;51.83;49.13;;;8.70;99.90;;;;;;6195891;23;20402;-82
2021/05/26 00:48:00;;;;;;;;;;;;;;;;;;;;;
2021/05/26 00:50:38;;;;;;;56.70;53.60;;;8.80;99.90;;;;;;6185362;23;20419;-82
2021/05/26 00:53:07;;;;;;;53.30;50.40;;;8.80;99.90;;;;;;6195235;23;20405;-82
2021/05/26 00:56:15;;;;;;;;;;;;;;;;;;;;;
2021/05/26 00:58:59;;;;;;;;;;;;;;;;;;;;;
2021/05/26 01:02:00;;;;;;;51.33;47.90;;;8.70;99.90;;;;;;6185209;23;20401;-82
2021/05/26 01:04:55;;;;;;;43.73;41.23;;;8.80;99.90;;;;;;6143287;23;20448;-81
2021/05/26 01:07:28;;;;;;;42.30;39.23;;;8.90;99.90;;;;;;6194323;23;20499;-82
2021/05/26 01:10:04;;;;;;;41.53;38.03;;;8.80;99.90;;;;;;6185760;23;20404;-82
2021/05/26 01:12:35;;;;;;;41.70;39.20;;;8.90;99.90;;;;;;6185898;23;20735;-82
2021/05/26 01:15:29;;;;;;;39.23;36.53;;;8.90;99.90;;;;;;6185616;23;20405;-82
2021/05/26 01:18:27;;;;;;;36.90;34.60;;;8.90;99.90;;;;;;6178182;23;20413;-83
2021/05/26 01:21:15;;;;;;;41.43;38.80;;;8.90;99.90;;;;;;6184673;23;20393;-82
2021/05/26 01:24:20;;;;;;;40.83;38.57;;;8.80;99.90;;;;;;6185114;23;20590;-82
2021/05/26 01:27:08;;;;;;;41.17;38.87;;;8.90;99.90;;;;;;6142066;23;20744;-82
2021/05/26 01:30:17;;;;;;;38.40;35.90;;;8.90;99.90;;;;;;6194885;23;20444;-82
2021/05/26 01:32:59;;;;;;;37.17;34.20;;;8.80;99.90;;;;;;6185476;23;20951;-83
2021/05/26 01:35:48;;;;;;;34.23;31.87;;;8.80;99.90;;;;;;6195268;23;20416;-82
2021/05/26 01:38:46;;;;;;;36.47;34.27;;;8.80;99.90;;;;;;6139945;23;20420;-83
2021/05/26 01:44:38;;;;;;;40.70;37.67;;;8.70;99.90;;;;;;6093568;23;20506;-82
2021/05/26 01:47:32;;;;;;;40.50;37.43;;;8.70;99.90;;;;;;6091677;23;20995;-82
2021/05/26 01:50:15;;;;;;;;;;;;;;;;;;;;;
2021/05/26 01:52:49;;;;;;;37.80;35.60;;;8.70;99.90;;;;;;6183944;23;20419;-82
2021/05/26 01:55:20;;;;;;;42.90;40.53;;;8.70;99.90;;;;;;6195325;23;20427;-82
2021/05/26 01:57:51;;;;;;;45.33;42.80;;;8.60;99.90;;;;;;6192934;23;20405;-82
2021/05/26 02:00:33;;;;;;;;;;;;;;;;;;;;;
2021/05/26 02:03:09;;;;;;;59.33;55.73;;;8.50;99.90;;;;;;6184701;23;20480;-83
2021/05/26 02:05:56;;;;;;;55.80;52.90;;;8.60;99.90;;;;;;6185153;23;20432;-82
2021/05/26 02:08:59;;;;;;;56.73;53.83;;;8.70;99.90;;;;;;6195447;23;20487;-83
2021/05/26 02:14:20;;;;;;;54.00;51.00;;;8.80;99.90;;;;;;6195143;23;20404;-82
2021/05/26 02:21:02;;;;;;;;;;;;;;;;;;;;;
2021/05/26 02:23:37;;;;;;;56.57;53.40;;;8.90;99.90;;;;;;6029299;23;20507;-82
2021/05/26 02:26:26;;;;;;;57.80;53.70;;;9.00;99.90;;;;;;6076826;23;20954;-81
2021/05/26 02:29:13;;;;;;;62.83;59.10;;;9.00;99.90;;;;;;6131596;23;20430;-82
2021/05/26 02:31:42;;;;;;;55.80;53.00;;;9.00;99.90;;;;;;6185403;23;20405;-82
2021/05/26 02:34:11;;;;;;;56.90;53.43;;;9.00;99.90;;;;;;6184604;23;20413;-82
2021/05/26 02:37:05;;;;;;;50.53;47.83;;;9.00;99.90;;;;;;6193960;23;20706;-83
2021/05/26 02:39:53;;;;;;;42.30;39.80;;;9.00;99.90;;;;;;6196689;23;20409;-82
2021/05/26 02:42:50;;;;;;;40.53;38.20;;;9.20;99.90;;;;;;6187213;23;20404;-82
2021/05/26 02:46:12;;;;;;;43.50;40.73;;;9.10;99.90;;;;;;6179898;23;20420;-82
2021/05/26 02:48:55;;;;;;;;;;;;;;;;;;;;;
2021/05/26 02:51:37;;;;;;;33.40;31.20;;;9.10;99.90;;;;;;6185070;23;20467;-82
2021/05/26 02:54:30;;;;;;;33.70;31.60;;;9.10;99.90;;;;;;6196612;23;20462;-81
2021/05/26 02:57:04;;;;;;;35.00;32.70;;;9.10;99.90;;;;;;6187085;23;20444;-80
2021/05/26 02:59:52;;;;;;;34.17;31.47;;;9.10;99.90;;;;;;6196506;23;20408;-82
2021/05/26 03:02:26;;;;;;;34.00;32.00;;;9.10;99.90;;;;;;6196894;23;20471;-82
2021/05/26 03:04:59;;;;;;;33.90;31.73;;;9.10;99.90;;;;;;6196690;23;20463;-82
2021/05/26 03:07:45;;;;;;;;;;;;;;;;;;;;;
2021/05/26 03:10:19;;;;;;;35.00;32.50;;;9.00;99.90;;;;;;6196695;23;20421;-84
2021/05/26 03:13:04;;;;;;;37.00;34.60;;;9.10;99.90;;;;;;6196921;23;20413;-82
2021/05/26 03:15:42;;;;;;;;;;;;;;;;;;;;;
2021/05/26 03:18:46;;;;;;;41.37;38.90;;;9.00;99.90;;;;;;6196479;23;20400;-85
2021/05/26 03:21:20;;;;;;;38.63;35.80;;;9.00;99.90;;;;;;6182915;23;20418;-83
2021/05/26 03:23:49;;;;;;;41.50;39.00;;;8.90;99.90;;;;;;6196057;23;20452;-82
2021/05/26 03:26:22;;;;;;;42.33;40.00;;;8.90;99.90;;;;;;6186695;23;20425;-83
2021/05/26 03:29:18;;;;;;;47.23;44.50;;;8.80;99.90;;;;;;6186761;23;20440;-83
2021/05/26 03:32:01;;;;;;;52.57;49.90;;;8.80;99.90;;;;;;6118963;23;20445;-82
2021/05/26 03:34:27;;;;;;;55.07;52.27;;;8.70;99.90;;;;;;6196504;23;20413;-82
2021/05/26 03:37:01;;;;;;;52.73;49.87;;;8.80;99.90;;;;;;6195569;23;20936;-82
2021/05/26 03:39:40;;;;;;;56.20;53.33;;;8.80;99.90;;;;;;6196753;23;20431;-82
2021/05/26 03:42:10;;;;;;;60.97;57.87;;;8.80;99.90;;;;;;6196584;23;20892;-84
2021/05/26 03:44:42;;;;;;;59.47;56.17;;;8.80;99.90;;;;;;6196305;23;20916;-83
2021/05/26 03:47:34;;;;;;;61.50;58.40;;;8.80;99.90;;;;;;6186254;23;20519;-84
2021/05/26 03:50:12;;;;;;;58.20;54.87;;;8.90;99.90;;;;;;6127851;23;20927;-83
2021/05/26 03:53:30;;;;;;;50.40;47.60;;;8.90;99.90;;;;;;6195054;23;20889;-83
2021/05/26 04:00:04;;;;;;;37.57;34.73;;;9.00;99.90;;;;;;6135248;23;20408;-83
2021/05/26 04:02:46;;;;;;;41.10;38.80;;;9.00;99.90;;;;;;6185825;23;20401;-83
2021/05/26 04:05:12;;;;;;;45.80;42.37;;;8.90;99.90;;;;;;6186260;23;20412;-80
2021/05/26 04:07:39;;;;;;;37.33;35.23;;;9.00;99.90;;;;;;6184531;23;20437;-83
2021/05/26 04:10:39;;;;;;;39.77;37.03;;;8.90;99.90;;;;;;6186261;23;20433;-84
2021/05/26 04:13:25;;;;;;;35.47;33.27;;;9.00;99.90;;;;;;6143884;23;20413;-84
2021/05/26 04:15:52;;;;;;;31.60;29.60;;;8.90;99.90;;;;;;6186397;23;20459;-83
2021/05/26 04:18:44;;;;;;;27.80;25.70;;;8.90;99.90;;;;;;6196110;23;20575;-82
2021/05/26 04:21:11;;;;;;;26.73;24.60;;;9.00;99.90;;;;;;6184596;23;20544;-83
2021/05/26 04:23:55;;;;;;;21.77;20.17;;;9.10;99.90;;;;;;6185926;23;20480;-83
2021/05/26 04:26:22;;;;;;;17.70;16.20;;;9.00;99.90;;;;;;6185748;23;20465;-80
2021/05/26 04:39:22;;;;;;;16.20;7.13;;;9.30;99.90;;;;;;6181836;23;20741;-83
2021/05/26 04:45:31;;;;;;;12.80;6.43;;;9.40;99.90;;;;;;6149795;23;20483;-83
2021/05/26 04:51:31;;;;;;;13.70;6.10;;;9.40;99.90;;;;;;6030729;23;20426;-83
2021/05/26 04:54:09;;;;;;;9.73;4.13;;;9.50;99.90;;;;;;5984379;23;20431;-83
2021/05/26 05:16:26;;;;;;;10.53;2.10;;;9.90;99.90;;;;;;6092882;23;20498;-84
2021/05/26 05:22:37;;;;;;;;;;;;;;;;;;;;;
2021/05/26 05:29:29;;;;;;;;;;;;;;;;;;;;;
2021/05/26 05:32:24;;;;;;;;;;;;;;;;;;;;;
2021/05/26 05:35:00;;;;;;;10.87;1.67;;;10.50;99.90;;;;;;6169857;23;20408;-83
2021/05/26 05:38:10;;;;;;;10.30;1.50;;;10.60;99.90;;;;;;6183738;23;20405;-84
2021/05/26 05:40:54;;;;;;;14.20;1.93;;;10.70;96.40;;;;;;6185195;23;20460;-85
2021/05/26 05:43:28;;;;;;;10.80;2.10;;;10.80;97.50;;;;;;6182428;23;20417;-82
2021/05/26 05:46:11;;;;;;;;;;;;;;;;;;;;;
2021/05/26 05:49:04;;;;;;;;;;;;;;;;;;;;;
2021/05/26 05:52:28;;;;;;;;;;;;;;;;;;;;;
2021/05/26 05:55:10;;;;;;;11.30;1.53;;;11.30;89.30;;;;;;5923731;24;20918;-83
2021/05/26 06:04:51;;;;;;;11.13;1.70;;;11.30;90.40;;;;;;6103291;23;20400;-82
2021/05/26 06:07:40;;;;;;;11.83;1.63;;;11.20;90.00;;;;;;6092263;23;20447;-84
2021/05/26 06:10:34;;;;;;;12.83;1.70;;;11.40;91.90;;;;;;6093451;23;20412;-83
2021/05/26 06:13:11;;;;;;;15.23;1.63;;;11.60;90.90;;;;;;5991085;24;20935;-83
2021/05/26 06:19:26;;;;;;;11.73;1.20;;;11.90;80.60;;;;;;6196856;23;21095;-84
2021/05/26 06:21:55;;;;;;;12.70;1.60;;;11.90;78.70;;;;;;6184149;23;20423;-85
2021/05/26 06:24:26;;;;;;;13.77;1.50;;;12.10;80.90;;;;;;6196326;23;20771;-85
2021/05/26 06:26:57;;;;;;;13.97;1.67;;;12.20;76.60;;;;;;6196372;23;20971;-85
2021/05/26 06:29:26;;;;;;;12.90;1.60;;;12.30;78.40;;;;;;6186981;23;20401;-84
2021/05/26 06:31:56;;;;;;;12.70;1.60;;;12.30;73.50;;;;;;6196502;23;20780;-84
2021/05/26 06:38:16;;;;;;;12.93;1.80;;;12.10;78.20;;;;;;6163198;23;20444;-83
2021/05/26 06:44:55;;;;;;;;;;;;;;;;;;;;;
2021/05/26 06:57:18;;;;;;;12.50;1.50;;;12.30;71.80;;;;;;5860657;24;20481;-82
2021/05/26 06:59:51;;;;;;;15.00;1.73;;;12.60;67.90;;;;;;6163900;23;20499;-85
2021/05/26 07:02:17;;;;;;;13.83;1.43;;;12.70;68.10;;;;;;6196937;23;20435;-82
2021/05/26 13:50:51;;;;;;;17.43;2.23;;;12.10;39.40;;;;;;5604171;24;20443;-82
2021/05/26 13:56:31;;;;;;;19.87;4.17;;;10.80;99.90;;;;;;6041238;23;20418;-82
2021/05/26 13:59:55;;;;;;;17.33;4.00;;;10.30;99.90;;;;;;6255627;23;20403;-83
2021/05/26 14:06:41;;;;;;;;;;;;;;;;;;;;;
2021/05/26 14:40:39;;;;;;;;;;;;;;;;;;;;;
2021/05/26 14:43:53;;;;;;;19.37;4.63;;;16.10;65.40;;;;;;6234702;23;20742;-81
2021/05/26 14:56:24;;;;;;;21.13;3.57;;;16.20;36.70;;;;;;5987435;23;20930;-81
2021/05/26 15:02:10;;;;;;;24.07;3.77;;;18.50;22.30;;;;;;6152425;23;20937;-82
2021/05/26 15:04:50;;;;;;;22.90;3.13;;;19.00;16.20;;;;;;6152394;23;20725;-83
2021/05/26 15:07:27;;;;;;;23.17;3.63;;;18.90;14.40;;;;;;6161261;23;20413;-82
2021/05/26 15:13:52;;;;;;;;;;;;;;;;;;;;;
2021/05/26 15:20:05;;;;;;;24.10;3.07;;;15.50;28.90;;;;;;6007202;23;20430;-84
2021/05/26 15:22:32;;;;;;;21.67;2.90;;;14.60;37.00;;;;;;6001609;23;20426;-80
2021/05/26 15:25:32;;;;;;;23.10;3.63;;;13.50;59.00;;;;;;6102970;23;20415;-82
2021/05/26 15:28:01;;;;;;;23.70;3.60;;;12.00;99.90;;;;;;6117310;23;20861;-81
2021/05/26 15:30:28;;;;;;;18.60;2.80;;;11.00;99.90;;;;;;6190734;23;20411;-81
2021/05/26 15:32:57;;;;;;;17.03;2.17;;;10.40;99.90;;;;;;6255484;23;20514;-81
2021/05/26 15:35:57;;;;;;;18.10;3.10;;;9.90;99.90;;;;;;6255644;23;20960;-82
2021/05/26 15:38:55;;;;;;;15.53;3.60;;;9.60;99.90;;;;;;6172720;23;20442;-82
2021/05/26 15:41:26;;;;;;;12.90;3.60;;;9.50;99.90;;;;;;6257391;23;20407;-82
2021/05/26 15:43:59;;;;;;;16.53;6.00;;;9.50;99.90;;;;;;6246813;23;20474;-81
2021/05/26 15:46:36;;;;;;;14.63;10.20;;;9.60;99.90;;;;;;6247133;23;20395;-83
2021/05/26 15:49:25;;;;;;;14.03;10.50;;;9.90;99.90;;;;;;6246482;23;20403;-84
2021/05/26 15:52:11;;;;;;;;;;;;;;;;;;;;;
2021/05/26 15:54:57;;;;;;;27.80;25.77;;;10.70;99.90;;;;;;6232955;23;20505;-83
2021/05/26 15:57:25;;;;;;;20.63;18.73;;;11.80;99.90;;;;;;6256705;23;20419;-83
2021/05/26 16:00:40;;;;;;;28.40;26.17;;;13.00;99.90;;;;;;6246983;23;20410;-84
2021/05/26 16:09:25;;;;;;;18.53;3.07;;;15.70;99.90;;;;;;6197885;23;20415;-84
2021/05/26 16:12:16;;;;;;;21.87;2.70;;;15.80;94.10;;;;;;6246517;23;20402;-83
2021/05/26 16:15:05;;;;;;;;;;;;;;;;;;;;;
2021/05/26 16:17:51;;;;;;;20.97;2.83;;;14.80;75.40;;;;;;6245358;23;20961;-84
2021/05/26 16:21:11;;;;;;;19.30;2.90;;;14.40;73.00;;;;;;6245722;23;20426;-83
2021/05/26 16:33:32;;;;;;;20.07;2.83;;;14.50;67.40;;;;;;6103400;23;20499;-86
